createdAt,value
2022-11-20T00:00:17.853Z,9.80
2022-11-20T00:00:49.423Z,10.75
2022-11-20T00:01:23.674Z,10.85
2022-11-20T00:01:55.316Z,11.00
2022-11-20T00:02:27.138Z,11.77
2022-11-20T00:02:58.741Z,11.52
2022-11-20T00:03:30.374Z,10.68
2022-11-20T00:04:02.209Z,11.05
2022-11-20T00:04:33.806Z,10.18
2022-11-20T00:05:05.849Z,10.38
2022-11-20T00:05:37.387Z,10.25
2022-11-20T00:06:11.644Z,10.73
2022-11-20T00:06:43.274Z,10.43
2022-11-20T00:07:14.925Z,10.60
2022-11-20T00:07:46.541Z,10.02
2022-11-20T00:08:18.167Z,10.77
2022-11-20T00:08:50.479Z,10.43
2022-11-20T00:09:22.410Z,10.35
2022-11-20T00:09:54.406Z,10.68
2022-11-20T00:10:26.005Z,11.82
2022-11-20T00:10:57.672Z,12.18
2022-11-20T00:11:31.252Z,10.95
2022-11-20T00:12:02.988Z,10.77
2022-11-20T00:12:34.663Z,10.85
2022-11-20T00:13:06.568Z,11.48
2022-11-20T00:13:38.183Z,11.73
2022-11-20T00:14:10.800Z,11.25
2022-11-20T00:14:42.442Z,11.98
2022-11-20T00:15:14.012Z,11.95
2022-11-20T00:15:45.643Z,10.98
2022-11-20T00:16:20.203Z,12.40
2022-11-20T00:16:51.816Z,10.73
2022-11-20T00:17:23.996Z,10.88
2022-11-20T00:17:55.588Z,11.73
2022-11-20T00:18:28.297Z,10.77
2022-11-20T00:18:59.982Z,11.68
2022-11-20T00:19:31.595Z,10.80
2022-11-20T00:20:03.298Z,11.48
2022-11-20T00:20:34.855Z,11.10
2022-11-20T00:21:10.587Z,11.88
2022-11-20T00:21:42.193Z,10.85
2022-11-20T00:22:13.771Z,11.13
2022-11-20T00:22:45.415Z,11.02
2022-11-20T00:23:16.982Z,10.55
2022-11-20T00:23:49.498Z,11.32
2022-11-20T00:24:21.057Z,11.27
2022-11-20T00:24:52.612Z,11.55
2022-11-20T00:25:24.167Z,11.45
2022-11-20T00:25:55.738Z,10.75
2022-11-20T00:26:28.727Z,11.70
2022-11-20T00:27:00.270Z,11.75
2022-11-20T00:27:31.857Z,11.73
2022-11-20T00:28:03.571Z,11.73
2022-11-20T00:28:35.487Z,12.40
2022-11-20T00:29:07.175Z,11.63
2022-11-20T00:29:38.755Z,11.80
2022-11-20T00:30:14.674Z,11.25
2022-11-20T00:30:46.541Z,11.90
2022-11-20T00:31:18.370Z,11.88
2022-11-20T00:31:49.947Z,12.65
2022-11-20T00:32:21.495Z,12.35
2022-11-20T00:32:53.038Z,11.65
2022-11-20T00:33:24.671Z,11.27
2022-11-20T00:33:56.524Z,11.80
2022-11-20T00:34:28.070Z,11.45
2022-11-20T00:34:59.656Z,11.40
2022-11-20T00:35:31.214Z,11.38
2022-11-20T00:36:17.172Z,11.45
2022-11-20T00:36:48.902Z,11.40
2022-11-20T00:37:20.516Z,11.32
2022-11-20T00:37:52.104Z,11.15
2022-11-20T00:38:23.759Z,11.23
2022-11-20T00:38:57.925Z,11.77
2022-11-20T00:39:29.562Z,11.18
2022-11-20T00:40:01.123Z,11.43
2022-11-20T00:40:32.704Z,11.48
2022-11-20T00:41:09.439Z,12.00
2022-11-20T00:41:41.040Z,11.68
2022-11-20T00:42:12.587Z,12.05
2022-11-20T00:42:44.191Z,12.10
2022-11-20T00:43:15.722Z,11.05
2022-11-20T00:43:47.346Z,12.27
2022-11-20T00:44:18.895Z,11.23
2022-11-20T00:44:50.491Z,12.07
2022-11-20T00:45:22.178Z,11.60
2022-11-20T00:46:01.339Z,11.40
2022-11-20T00:46:33.027Z,11.32
2022-11-20T00:47:04.729Z,11.43
2022-11-20T00:47:36.329Z,11.32
2022-11-20T00:48:07.930Z,11.63
2022-11-20T00:48:39.534Z,11.15
2022-11-20T00:49:11.114Z,11.15
2022-11-20T00:49:42.715Z,11.45
2022-11-20T00:50:14.424Z,11.38
2022-11-20T00:50:46.002Z,11.80
2022-11-20T00:51:20.299Z,11.93
2022-11-20T00:51:51.874Z,12.68
2022-11-20T00:52:23.423Z,11.63
2022-11-20T00:52:55.006Z,11.30
2022-11-20T00:53:27.087Z,11.20
2022-11-20T00:54:00.940Z,11.85
2022-11-20T00:54:32.691Z,10.93
2022-11-20T00:55:04.534Z,11.50
2022-11-20T00:55:36.187Z,11.23
2022-11-20T00:56:11.187Z,11.45
2022-11-20T00:56:42.719Z,12.35
2022-11-20T00:57:14.328Z,11.07
2022-11-20T00:57:45.875Z,11.35
2022-11-20T00:58:17.447Z,12.75
2022-11-20T00:58:49.896Z,12.55
2022-11-20T00:59:21.744Z,12.32
2022-11-20T00:59:53.476Z,14.48
2022-11-20T01:00:25.073Z,16.10
2022-11-20T01:01:06.195Z,19.63
2022-11-20T01:01:38.404Z,21.80
2022-11-20T01:02:10.131Z,20.42
2022-11-20T01:02:41.719Z,21.85
2022-11-20T01:03:13.274Z,17.10
2022-11-20T01:03:46.974Z,15.60
2022-11-20T01:04:18.563Z,14.68
2022-11-20T01:04:50.426Z,15.30
2022-11-20T01:05:21.975Z,14.88
2022-11-20T01:05:53.542Z,21.15
2022-11-20T01:06:30.747Z,25.73
2022-11-20T01:07:02.346Z,25.25
2022-11-20T01:07:33.998Z,22.38
2022-11-20T01:08:05.814Z,22.58
2022-11-20T01:08:38.111Z,18.45
2022-11-20T01:09:13.467Z,16.67
2022-11-20T01:09:45.107Z,12.95
2022-11-20T01:10:16.675Z,12.63
2022-11-20T01:10:48.238Z,13.23
2022-11-20T01:11:31.709Z,14.82
2022-11-20T01:12:03.434Z,13.63
2022-11-20T01:12:35.070Z,15.25
2022-11-20T01:13:25.867Z,14.23
2022-11-20T01:13:59.415Z,12.27
2022-11-20T01:14:30.980Z,12.35
2022-11-20T01:15:02.552Z,13.52
2022-11-20T01:15:35.080Z,13.75
2022-11-20T01:16:06.777Z,11.95
2022-11-20T01:16:44.455Z,11.73
2022-11-20T01:17:16.031Z,12.18
2022-11-20T01:17:47.629Z,11.85
2022-11-20T01:18:19.346Z,11.18
2022-11-20T01:18:53.426Z,12.23
2022-11-20T01:19:25.386Z,11.52
2022-11-20T01:19:57.127Z,11.70
2022-11-20T01:20:28.717Z,11.65
2022-11-20T01:21:09.874Z,11.15
2022-11-20T01:21:43.963Z,12.50
2022-11-20T01:22:15.541Z,12.38
2022-11-20T01:22:47.091Z,13.88
2022-11-20T01:23:18.678Z,15.82
2022-11-20T01:23:51.287Z,18.73
2022-11-20T01:24:23.130Z,19.83
2022-11-20T01:24:54.759Z,19.98
2022-11-20T01:25:26.447Z,19.85
2022-11-20T01:25:58.049Z,19.15
2022-11-20T01:26:32.597Z,18.67
2022-11-20T01:27:04.214Z,15.50
2022-11-20T01:27:35.764Z,15.07
2022-11-20T01:28:07.347Z,14.43
2022-11-20T01:28:39.927Z,15.13
2022-11-20T01:29:18.093Z,13.80
2022-11-20T01:29:49.776Z,13.52
2022-11-20T01:30:21.382Z,13.63
2022-11-20T01:30:52.910Z,13.65
2022-11-20T01:31:28.298Z,12.70
2022-11-20T01:31:59.901Z,12.77
2022-11-20T01:32:31.478Z,11.85
2022-11-20T01:33:03.602Z,11.40
2022-11-20T01:33:35.173Z,10.93
2022-11-20T01:34:18.484Z,11.60
2022-11-20T01:34:50.072Z,11.23
2022-11-20T01:35:21.686Z,10.02
2022-11-20T01:35:54.046Z,11.07
2022-11-20T01:36:28.495Z,11.45
2022-11-20T01:37:00.109Z,10.85
2022-11-20T01:37:31.666Z,10.90
2022-11-20T01:38:03.252Z,10.88
2022-11-20T01:38:35.181Z,11.80
2022-11-20T01:39:11.142Z,11.05
2022-11-20T01:39:42.701Z,10.75
2022-11-20T01:40:14.427Z,10.35
2022-11-20T01:40:45.990Z,9.93
2022-11-20T01:41:36.449Z,9.75
2022-11-20T01:42:27.144Z,10.23
2022-11-20T01:43:23.960Z,10.02
2022-11-20T01:43:55.540Z,9.40
2022-11-20T01:44:49.367Z,9.20
2022-11-20T01:45:54.891Z,10.02
2022-11-20T01:46:26.542Z,9.40
2022-11-20T01:47:05.647Z,9.52
2022-11-20T01:47:47.378Z,9.93
2022-11-20T01:48:22.879Z,9.63
2022-11-20T01:49:02.314Z,9.35
2022-11-20T01:49:41.746Z,9.98
2022-11-20T01:50:19.622Z,10.35
2022-11-20T01:50:53.626Z,10.05
2022-11-20T01:51:51.154Z,10.05
2022-11-20T01:52:54.204Z,9.00
2022-11-20T01:53:31.198Z,9.82
2022-11-20T01:54:08.038Z,10.02
2022-11-20T01:54:45.121Z,10.45
2022-11-20T01:55:22.512Z,9.82
2022-11-20T01:55:58.054Z,10.60
2022-11-20T01:56:33.546Z,9.80
2022-11-20T01:57:07.198Z,10.43
2022-11-20T01:57:39.698Z,9.98
2022-11-20T01:58:11.442Z,11.38
2022-11-20T01:58:49.638Z,11.05
2022-11-20T01:59:23.904Z,9.82
2022-11-20T02:00:00.906Z,10.55
2022-11-20T02:01:14.191Z,10.23
2022-11-20T02:01:46.093Z,10.10
2022-11-20T02:02:17.723Z,10.63
2022-11-20T02:02:59.507Z,9.75
2022-11-20T02:03:31.835Z,9.75
2022-11-20T02:04:03.852Z,10.40
2022-11-20T02:04:35.551Z,9.63
2022-11-20T02:05:18.416Z,9.52
2022-11-20T02:06:13.723Z,9.23
2022-11-20T02:06:49.486Z,9.30
2022-11-20T02:07:22.086Z,9.05
2022-11-20T02:07:54.873Z,9.65
2022-11-20T02:08:26.422Z,9.20
2022-11-20T02:08:57.959Z,9.63
2022-11-20T02:09:29.724Z,9.35
2022-11-20T02:10:01.520Z,9.90
2022-11-20T02:10:33.573Z,9.40
2022-11-20T02:11:05.357Z,10.32
2022-11-20T02:11:36.924Z,10.35
2022-11-20T02:12:28.552Z,9.50
2022-11-20T02:13:18.908Z,9.75
2022-11-20T02:13:51.229Z,9.68
2022-11-20T02:14:24.047Z,9.02
2022-11-20T02:14:55.619Z,8.82
2022-11-20T02:15:30.308Z,9.48
2022-11-20T02:16:03.214Z,9.55
2022-11-20T02:16:38.627Z,9.02
2022-11-20T02:17:12.163Z,9.73
2022-11-20T02:17:43.775Z,9.00
2022-11-20T02:18:17.143Z,9.07
2022-11-20T02:18:49.418Z,9.27
2022-11-20T02:19:31.717Z,8.95
2022-11-20T02:20:04.101Z,8.77
2022-11-20T02:20:35.715Z,8.43
2022-11-20T02:21:26.417Z,9.15
2022-11-20T02:22:18.283Z,8.90
2022-11-20T02:22:58.377Z,8.40
2022-11-20T02:23:32.631Z,8.43
2022-11-20T02:24:10.884Z,8.65
2022-11-20T02:24:44.881Z,8.85
2022-11-20T02:25:17.117Z,8.05
2022-11-20T02:25:49.121Z,9.15
2022-11-20T02:26:23.072Z,9.07
2022-11-20T02:26:59.443Z,8.45
2022-11-20T02:27:31.166Z,9.15
2022-11-20T02:28:03.782Z,9.25
2022-11-20T02:28:35.691Z,9.02
2022-11-20T02:29:07.274Z,9.27
2022-11-20T02:29:56.690Z,8.88
2022-11-20T02:30:28.279Z,8.65
2022-11-20T02:30:59.879Z,9.00
2022-11-20T02:31:38.599Z,8.88
2022-11-20T02:32:39.758Z,8.60
2022-11-20T02:33:11.315Z,8.40
2022-11-20T02:33:42.887Z,8.50
2022-11-20T02:34:14.518Z,9.55
2022-11-20T02:34:46.179Z,8.80
2022-11-20T02:35:20.501Z,8.77
2022-11-20T02:35:52.067Z,8.60
2022-11-20T02:36:26.923Z,8.77
2022-11-20T02:37:00.132Z,9.10
2022-11-20T02:37:35.099Z,8.88
2022-11-20T02:38:06.723Z,9.02
2022-11-20T02:38:38.499Z,9.10
2022-11-20T02:39:13.182Z,8.80
2022-11-20T02:39:47.015Z,8.65
2022-11-20T02:40:18.716Z,8.75
2022-11-20T02:40:55.115Z,8.13
2022-11-20T02:41:38.271Z,8.82
2022-11-20T02:42:09.856Z,8.35
2022-11-20T02:42:41.584Z,8.88
2022-11-20T02:43:13.299Z,9.20
2022-11-20T02:43:44.866Z,8.50
2022-11-20T02:44:16.508Z,9.45
2022-11-20T02:44:48.083Z,8.90
2022-11-20T02:45:19.779Z,9.05
2022-11-20T02:45:51.556Z,8.43
2022-11-20T02:46:23.100Z,9.43
2022-11-20T02:46:57.685Z,9.05
2022-11-20T02:47:29.331Z,9.15
2022-11-20T02:48:01.008Z,9.73
2022-11-20T02:48:34.054Z,9.05
2022-11-20T02:49:06.288Z,9.00
2022-11-20T02:49:37.957Z,8.52
2022-11-20T02:50:09.662Z,9.18
2022-11-20T02:50:41.544Z,8.98
2022-11-20T02:51:13.096Z,9.63
2022-11-20T02:51:44.975Z,8.93
2022-11-20T02:52:16.554Z,9.35
2022-11-20T02:52:48.187Z,9.88
2022-11-20T02:53:19.825Z,9.02
2022-11-20T02:53:51.616Z,9.63
2022-11-20T02:54:23.879Z,10.43
2022-11-20T02:54:55.700Z,9.18
2022-11-20T02:55:27.329Z,9.65
2022-11-20T02:55:58.911Z,9.48
2022-11-20T02:56:30.814Z,8.98
2022-11-20T02:57:02.502Z,9.07
2022-11-20T02:57:34.220Z,9.35
2022-11-20T02:58:05.841Z,9.88
2022-11-20T02:58:37.396Z,9.43
2022-11-20T02:59:09.314Z,9.43
2022-11-20T02:59:40.878Z,9.70
2022-11-20T03:00:13.166Z,9.10
2022-11-20T03:00:44.753Z,9.95
2022-11-20T03:01:16.618Z,9.52
2022-11-20T03:01:48.222Z,9.93
2022-11-20T03:02:20.193Z,9.07
2022-11-20T03:02:51.768Z,8.57
2022-11-20T03:03:23.369Z,8.95
2022-11-20T03:03:55.893Z,9.38
2022-11-20T03:04:27.458Z,9.73
2022-11-20T03:04:59.112Z,8.65
2022-11-20T03:05:30.705Z,8.82
2022-11-20T03:06:02.409Z,9.27
2022-11-20T03:06:34.305Z,9.32
2022-11-20T03:07:06.065Z,9.73
2022-11-20T03:07:37.758Z,9.23
2022-11-20T03:08:09.377Z,9.98
2022-11-20T03:08:40.947Z,10.18
2022-11-20T03:09:12.860Z,9.73
2022-11-20T03:09:44.401Z,9.80
2022-11-20T03:10:16.065Z,9.30
2022-11-20T03:10:47.607Z,10.02
2022-11-20T03:11:19.333Z,9.95
2022-11-20T03:11:51.055Z,9.93
2022-11-20T03:12:22.599Z,9.65
2022-11-20T03:12:57.567Z,10.15
2022-11-20T03:13:29.199Z,8.75
2022-11-20T03:14:04.194Z,10.00
2022-11-20T03:14:35.738Z,9.50
2022-11-20T03:15:07.904Z,9.13
2022-11-20T03:15:39.502Z,9.50
2022-11-20T03:16:14.477Z,10.10
2022-11-20T03:16:46.033Z,10.30
2022-11-20T03:17:17.692Z,10.05
2022-11-20T03:17:49.351Z,9.57
2022-11-20T03:18:20.927Z,9.95
2022-11-20T03:18:53.726Z,9.98
2022-11-20T03:19:25.341Z,9.30
2022-11-20T03:19:56.876Z,10.48
2022-11-20T03:20:28.527Z,10.48
2022-11-20T03:21:00.186Z,10.20
2022-11-20T03:21:33.538Z,9.40
2022-11-20T03:22:05.086Z,10.43
2022-11-20T03:22:36.728Z,9.75
2022-11-20T03:23:08.306Z,10.00
2022-11-20T03:23:40.723Z,9.40
2022-11-20T03:24:12.305Z,9.80
2022-11-20T03:24:43.853Z,10.00
2022-11-20T03:25:15.511Z,10.18
2022-11-20T03:25:47.061Z,10.23
2022-11-20T03:26:21.801Z,9.88
2022-11-20T03:26:53.463Z,9.93
2022-11-20T03:27:25.035Z,9.73
2022-11-20T03:27:56.695Z,10.07
2022-11-20T03:28:28.277Z,9.77
2022-11-20T03:29:02.181Z,9.85
2022-11-20T03:29:33.786Z,10.35
2022-11-20T03:30:06.491Z,9.70
2022-11-20T03:30:38.103Z,10.18
2022-11-20T03:31:13.173Z,9.30
2022-11-20T03:31:44.841Z,11.10
2022-11-20T03:32:16.421Z,9.85
2022-11-20T03:32:48.374Z,10.20
2022-11-20T03:33:19.947Z,10.75
2022-11-20T03:33:51.841Z,9.65
2022-11-20T03:34:24.197Z,10.50
2022-11-20T03:34:55.764Z,10.35
2022-11-20T03:35:27.419Z,12.93
2022-11-20T03:36:03.682Z,10.48
2022-11-20T03:36:35.331Z,9.38
2022-11-20T03:37:07.366Z,9.48
2022-11-20T03:37:38.957Z,10.45
2022-11-20T03:38:10.583Z,10.20
2022-11-20T03:38:42.487Z,9.63
2022-11-20T03:39:14.205Z,10.90
2022-11-20T03:39:45.754Z,10.27
2022-11-20T03:40:17.326Z,9.88
2022-11-20T03:40:49.830Z,10.70
2022-11-20T03:41:24.543Z,10.35
2022-11-20T03:41:56.090Z,10.02
2022-11-20T03:42:46.305Z,10.10
2022-11-20T03:43:17.852Z,9.85
2022-11-20T03:43:54.806Z,10.00
2022-11-20T03:44:26.434Z,10.30
2022-11-20T03:44:57.975Z,10.50
2022-11-20T03:45:29.520Z,10.45
2022-11-20T03:46:01.706Z,11.23
2022-11-20T03:46:33.689Z,10.82
2022-11-20T03:47:05.213Z,11.02
2022-11-20T03:47:36.997Z,11.20
2022-11-20T03:48:08.577Z,10.45
2022-11-20T03:48:40.195Z,9.98
2022-11-20T03:49:11.819Z,10.25
2022-11-20T03:49:43.931Z,10.40
2022-11-20T03:50:15.692Z,10.30
2022-11-20T03:50:48.650Z,10.55
2022-11-20T03:51:29.015Z,10.80
2022-11-20T03:52:00.558Z,11.55
2022-11-20T03:52:32.093Z,10.45
2022-11-20T03:53:03.631Z,11.57
2022-11-20T03:53:35.356Z,11.55
2022-11-20T03:54:09.227Z,11.57
2022-11-20T03:54:40.829Z,11.65
2022-11-20T03:55:12.404Z,12.35
2022-11-20T03:55:44.113Z,11.68
2022-11-20T03:56:17.637Z,11.52
2022-11-20T03:56:49.206Z,11.23
2022-11-20T03:57:20.778Z,11.27
2022-11-20T03:57:52.518Z,11.10
2022-11-20T03:58:24.108Z,10.32
2022-11-20T03:58:56.053Z,11.00
2022-11-20T03:59:27.662Z,10.07
2022-11-20T03:59:59.230Z,10.40
2022-11-20T04:00:30.767Z,10.48
2022-11-20T04:01:07.525Z,10.00
2022-11-20T04:01:39.206Z,9.90
2022-11-20T04:02:10.902Z,9.70
2022-11-20T04:02:42.503Z,9.95
2022-11-20T04:03:14.042Z,10.48
2022-11-20T04:03:46.735Z,10.45
2022-11-20T04:04:18.314Z,10.40
2022-11-20T04:04:49.910Z,10.20
2022-11-20T04:05:21.459Z,10.63
2022-11-20T04:05:53.030Z,10.38
2022-11-20T04:06:30.036Z,9.82
2022-11-20T04:07:01.670Z,9.60
2022-11-20T04:07:35.069Z,9.63
2022-11-20T04:08:06.714Z,10.27
2022-11-20T04:08:39.104Z,10.43
2022-11-20T04:09:10.873Z,10.38
2022-11-20T04:09:42.430Z,9.77
2022-11-20T04:10:14.080Z,9.15
2022-11-20T04:10:45.651Z,10.15
2022-11-20T04:11:22.553Z,10.45
2022-11-20T04:11:54.123Z,9.88
2022-11-20T04:12:25.669Z,9.55
2022-11-20T04:12:57.193Z,9.73
2022-11-20T04:13:28.811Z,10.77
2022-11-20T04:14:02.753Z,10.65
2022-11-20T04:14:34.349Z,10.00
2022-11-20T04:15:06.480Z,10.73
2022-11-20T04:15:38.617Z,11.05
2022-11-20T04:16:10.939Z,10.52
2022-11-20T04:16:43.022Z,10.70
2022-11-20T04:17:14.582Z,11.40
2022-11-20T04:17:46.158Z,10.65
2022-11-20T04:18:17.696Z,10.63
2022-11-20T04:18:53.957Z,11.00
2022-11-20T04:19:25.493Z,11.13
2022-11-20T04:19:57.074Z,13.10
2022-11-20T04:20:28.673Z,10.52
2022-11-20T04:21:00.814Z,11.05
2022-11-20T04:21:32.718Z,11.27
2022-11-20T04:22:04.386Z,11.05
2022-11-20T04:22:35.953Z,11.25
2022-11-20T04:23:07.530Z,11.10
2022-11-20T04:23:39.986Z,11.25
2022-11-20T04:24:11.881Z,10.88
2022-11-20T04:24:43.493Z,11.07
2022-11-20T04:25:15.070Z,11.07
2022-11-20T04:25:46.661Z,11.25
2022-11-20T04:26:18.462Z,11.80
2022-11-20T04:26:50.049Z,11.60
2022-11-20T04:27:21.939Z,11.23
2022-11-20T04:27:53.490Z,11.50
2022-11-20T04:28:25.201Z,11.80
2022-11-20T04:28:57.854Z,12.77
2022-11-20T04:29:29.442Z,13.27
2022-11-20T04:30:01.054Z,12.23
2022-11-20T04:30:32.681Z,12.15
2022-11-20T04:31:11.484Z,12.93
2022-11-20T04:31:43.065Z,12.30
2022-11-20T04:32:14.627Z,11.98
2022-11-20T04:32:46.212Z,11.63
2022-11-20T04:33:17.835Z,11.73
2022-11-20T04:33:49.987Z,11.85
2022-11-20T04:34:21.572Z,10.85
2022-11-20T04:34:53.151Z,11.25
2022-11-20T04:35:24.754Z,11.07
2022-11-20T04:35:56.506Z,11.40
2022-11-20T04:36:29.186Z,11.32
2022-11-20T04:37:01.119Z,11.10
2022-11-20T04:37:32.707Z,11.25
2022-11-20T04:38:05.019Z,12.00
2022-11-20T04:38:36.699Z,11.38
2022-11-20T04:39:08.369Z,10.77
2022-11-20T04:39:40.006Z,10.77
2022-11-20T04:40:12.222Z,11.43
2022-11-20T04:40:43.761Z,11.73
2022-11-20T04:41:20.252Z,11.13
2022-11-20T04:42:14.393Z,11.90
2022-11-20T04:42:45.970Z,11.20
2022-11-20T04:43:17.522Z,11.00
2022-11-20T04:43:50.566Z,10.95
2022-11-20T04:44:22.146Z,10.45
2022-11-20T04:44:53.704Z,11.45
2022-11-20T04:45:25.294Z,11.07
2022-11-20T04:45:58.377Z,10.93
2022-11-20T04:46:32.581Z,11.18
2022-11-20T04:47:04.179Z,11.15
2022-11-20T04:47:35.803Z,10.52
2022-11-20T04:48:07.381Z,11.02
2022-11-20T04:48:38.945Z,10.85
2022-11-20T04:49:11.912Z,10.80
2022-11-20T04:49:43.547Z,10.32
2022-11-20T04:50:15.270Z,11.07
2022-11-20T04:50:46.946Z,11.52
2022-11-20T04:51:18.703Z,11.60
2022-11-20T04:51:50.238Z,11.20
2022-11-20T04:52:21.797Z,11.93
2022-11-20T04:52:53.417Z,12.05
2022-11-20T04:53:25.214Z,12.35
2022-11-20T04:53:56.859Z,12.48
2022-11-20T04:54:28.518Z,12.52
2022-11-20T04:55:00.054Z,11.55
2022-11-20T04:55:31.592Z,11.10
2022-11-20T04:56:05.890Z,11.90
2022-11-20T04:56:37.831Z,12.00
2022-11-20T04:57:14.274Z,10.85
2022-11-20T04:57:46.246Z,11.10
2022-11-20T04:58:18.207Z,11.75
2022-11-20T04:58:49.911Z,11.25
2022-11-20T04:59:21.771Z,11.07
2022-11-20T04:59:53.606Z,11.35
2022-11-20T05:00:25.479Z,11.23
2022-11-20T05:01:04.422Z,11.48
2022-11-20T05:01:36.005Z,10.57
2022-11-20T05:02:07.632Z,11.80
2022-11-20T05:02:39.215Z,13.77
2022-11-20T05:03:10.823Z,13.88
2022-11-20T05:03:43.920Z,18.42
2022-11-20T05:04:15.462Z,20.70
2022-11-20T05:04:47.130Z,38.42
2022-11-20T05:05:19.264Z,31.13
2022-11-20T05:05:50.854Z,28.10
2022-11-20T05:06:23.121Z,41.80
2022-11-20T05:06:54.737Z,36.47
2022-11-20T05:07:26.359Z,46.20
2022-11-20T05:07:59.047Z,29.33
2022-11-20T05:08:31.629Z,28.15
2022-11-20T05:09:03.314Z,29.20
2022-11-20T05:09:34.930Z,28.05
2022-11-20T05:10:07.074Z,30.48
2022-11-20T05:10:39.022Z,31.13
2022-11-20T05:11:16.563Z,36.95
2022-11-20T05:11:51.373Z,36.58
2022-11-20T05:12:23.206Z,32.45
2022-11-20T05:12:54.857Z,32.05
2022-11-20T05:13:26.491Z,28.67
2022-11-20T05:13:59.878Z,27.60
2022-11-20T05:14:31.553Z,27.75
2022-11-20T05:15:03.346Z,24.67
2022-11-20T05:15:35.062Z,22.13
2022-11-20T05:16:15.553Z,20.65
2022-11-20T05:16:47.422Z,18.23
2022-11-20T05:17:19.017Z,15.40
2022-11-20T05:17:53.695Z,14.73
2022-11-20T05:18:25.238Z,14.57
2022-11-20T05:18:56.878Z,11.77
2022-11-20T05:19:28.460Z,11.65
2022-11-20T05:20:00.091Z,10.82
2022-11-20T05:20:31.666Z,11.88
2022-11-20T05:21:04.321Z,11.48
2022-11-20T05:21:35.862Z,12.20
2022-11-20T05:22:07.666Z,13.10
2022-11-20T05:22:39.279Z,13.57
2022-11-20T05:23:10.923Z,13.35
2022-11-20T05:23:43.551Z,12.98
2022-11-20T05:24:15.095Z,13.65
2022-11-20T05:24:46.633Z,13.80
2022-11-20T05:25:18.274Z,13.35
2022-11-20T05:25:57.520Z,13.23
2022-11-20T05:26:30.376Z,12.55
2022-11-20T05:27:01.928Z,12.05
2022-11-20T05:27:33.498Z,12.25
2022-11-20T05:28:05.032Z,12.88
2022-11-20T05:28:36.613Z,14.63
2022-11-20T05:29:10.322Z,15.07
2022-11-20T05:29:41.899Z,13.95
2022-11-20T05:30:14.241Z,13.73
2022-11-20T05:30:45.774Z,13.48
2022-11-20T05:31:28.358Z,14.15
2022-11-20T05:32:00.137Z,12.98
2022-11-20T05:32:31.918Z,13.25
2022-11-20T05:33:03.555Z,12.48
2022-11-20T05:33:36.411Z,12.88
2022-11-20T05:34:08.079Z,12.27
2022-11-20T05:34:39.619Z,13.38
2022-11-20T05:35:11.174Z,12.30
2022-11-20T05:35:43.130Z,11.82
2022-11-20T05:36:15.930Z,10.60
2022-11-20T05:36:47.530Z,12.07
2022-11-20T05:37:19.186Z,12.30
2022-11-20T05:37:50.795Z,12.13
2022-11-20T05:38:22.370Z,12.73
2022-11-20T05:38:59.716Z,12.95
2022-11-20T05:39:32.986Z,12.35
2022-11-20T05:40:05.210Z,13.65
2022-11-20T05:40:37.043Z,13.85
2022-11-20T05:41:14.079Z,13.40
2022-11-20T05:41:45.656Z,11.95
2022-11-20T05:42:32.676Z,12.90
2022-11-20T05:43:04.279Z,13.40
2022-11-20T05:43:37.331Z,11.95
2022-11-20T05:44:12.049Z,11.95
2022-11-20T05:44:43.629Z,11.90
2022-11-20T05:45:15.222Z,11.38
2022-11-20T05:45:56.107Z,11.27
2022-11-20T05:46:29.502Z,10.80
2022-11-20T05:47:01.378Z,10.63
2022-11-20T05:47:35.091Z,11.10
2022-11-20T05:48:06.723Z,11.15
2022-11-20T05:48:39.316Z,11.48
2022-11-20T05:49:10.954Z,10.32
2022-11-20T05:49:42.496Z,11.15
2022-11-20T05:50:15.466Z,11.93
2022-11-20T05:50:47.001Z,11.07
2022-11-20T05:51:20.138Z,10.90
2022-11-20T05:51:51.720Z,10.98
2022-11-20T05:52:23.374Z,10.82
2022-11-20T05:52:55.058Z,11.15
2022-11-20T05:53:27.846Z,10.98
2022-11-20T05:53:59.703Z,10.30
2022-11-20T05:54:31.312Z,10.75
2022-11-20T05:55:03.092Z,10.68
2022-11-20T05:55:34.753Z,13.00
2022-11-20T05:56:10.962Z,12.18
2022-11-20T05:56:42.949Z,11.35
2022-11-20T05:57:14.545Z,10.48
2022-11-20T05:57:46.185Z,11.60
2022-11-20T05:58:17.725Z,11.07
2022-11-20T05:58:50.092Z,10.77
2022-11-20T05:59:21.955Z,11.05
2022-11-20T05:59:53.693Z,12.02
2022-11-20T06:00:25.259Z,10.82
2022-11-20T06:01:11.781Z,12.25
2022-11-20T06:01:43.475Z,11.60
2022-11-20T06:02:15.127Z,13.35
2022-11-20T06:02:46.849Z,13.23
2022-11-20T06:03:18.553Z,11.93
2022-11-20T06:03:51.854Z,11.82
2022-11-20T06:04:23.722Z,11.38
2022-11-20T06:04:55.265Z,11.40
2022-11-20T06:05:26.796Z,11.35
2022-11-20T06:06:00.387Z,10.00
2022-11-20T06:06:31.994Z,10.98
2022-11-20T06:07:03.803Z,11.95
2022-11-20T06:07:35.536Z,11.88
2022-11-20T06:08:07.250Z,10.88
2022-11-20T06:08:38.863Z,11.80
2022-11-20T06:09:10.525Z,11.38
2022-11-20T06:09:42.101Z,11.75
2022-11-20T06:10:13.814Z,10.75
2022-11-20T06:10:45.367Z,11.43
2022-11-20T06:11:17.437Z,10.60
2022-11-20T06:11:48.994Z,10.68
2022-11-20T06:12:20.575Z,10.75
2022-11-20T06:12:52.162Z,10.85
2022-11-20T06:13:23.909Z,11.30
2022-11-20T06:13:55.500Z,11.95
2022-11-20T06:14:27.168Z,10.73
2022-11-20T06:14:58.759Z,12.35
2022-11-20T06:15:30.311Z,12.35
2022-11-20T06:16:02.604Z,11.52
2022-11-20T06:16:34.407Z,12.07
2022-11-20T06:17:05.943Z,10.82
2022-11-20T06:17:37.494Z,11.00
2022-11-20T06:18:09.062Z,11.13
2022-11-20T06:18:40.886Z,12.38
2022-11-20T06:19:12.466Z,10.27
2022-11-20T06:19:44.047Z,11.40
2022-11-20T06:20:15.834Z,10.85
2022-11-20T06:20:47.819Z,12.40
2022-11-20T06:21:21.790Z,11.23
2022-11-20T06:21:53.338Z,11.95
2022-11-20T06:22:24.906Z,11.50
2022-11-20T06:22:56.511Z,11.82
2022-11-20T06:23:30.030Z,11.00
2022-11-20T06:24:01.611Z,12.70
2022-11-20T06:24:33.191Z,10.95
2022-11-20T06:25:04.959Z,11.55
2022-11-20T06:25:43.550Z,11.85
2022-11-20T06:26:21.645Z,11.77
2022-11-20T06:26:53.266Z,10.77
2022-11-20T06:27:24.839Z,12.38
2022-11-20T06:27:56.418Z,11.55
2022-11-20T06:28:27.999Z,11.95
2022-11-20T06:28:59.566Z,12.50
2022-11-20T06:29:33.889Z,12.63
2022-11-20T06:30:06.450Z,11.88
2022-11-20T06:30:38.038Z,12.57
2022-11-20T06:31:12.382Z,12.18
2022-11-20T06:31:43.944Z,12.18
2022-11-20T06:32:15.514Z,11.70
2022-11-20T06:32:47.055Z,11.73
2022-11-20T06:33:18.650Z,12.18
2022-11-20T06:33:51.322Z,11.57
2022-11-20T06:34:22.881Z,11.30
2022-11-20T06:34:54.414Z,12.43
2022-11-20T06:35:26.118Z,12.00
2022-11-20T06:36:05.672Z,12.27
2022-11-20T06:36:40.651Z,11.52
2022-11-20T06:37:12.202Z,12.25
2022-11-20T06:37:43.779Z,11.63
2022-11-20T06:38:15.352Z,12.05
2022-11-20T06:38:47.359Z,11.30
2022-11-20T06:39:19.093Z,11.98
2022-11-20T06:39:50.774Z,12.48
2022-11-20T06:40:22.304Z,12.70
2022-11-20T06:40:54.183Z,12.60
2022-11-20T06:41:26.351Z,11.75
2022-11-20T06:41:59.183Z,11.40
2022-11-20T06:42:31.078Z,12.00
2022-11-20T06:43:02.675Z,11.75
2022-11-20T06:43:34.255Z,11.85
2022-11-20T06:44:06.726Z,11.95
2022-11-20T06:44:38.324Z,13.18
2022-11-20T06:45:10.454Z,12.55
2022-11-20T06:45:41.995Z,12.35
2022-11-20T06:46:15.132Z,11.88
2022-11-20T06:46:46.687Z,11.95
2022-11-20T06:47:18.226Z,12.30
2022-11-20T06:47:49.794Z,12.40
2022-11-20T06:48:21.661Z,12.73
2022-11-20T06:48:53.229Z,12.52
2022-11-20T06:49:25.113Z,13.13
2022-11-20T06:49:56.822Z,11.38
2022-11-20T06:50:28.367Z,11.45
2022-11-20T06:51:00.487Z,12.23
2022-11-20T06:51:32.032Z,12.05
2022-11-20T06:52:03.797Z,12.27
2022-11-20T06:52:38.358Z,12.65
2022-11-20T06:53:13.878Z,12.52
2022-11-20T06:53:45.808Z,12.18
2022-11-20T06:54:18.737Z,12.07
2022-11-20T06:54:50.327Z,13.07
2022-11-20T06:55:21.968Z,12.52
2022-11-20T06:55:57.186Z,12.43
2022-11-20T06:56:29.175Z,12.38
2022-11-20T06:57:00.739Z,11.48
2022-11-20T06:57:32.414Z,11.02
2022-11-20T06:58:03.946Z,11.65
2022-11-20T06:58:36.586Z,12.60
2022-11-20T06:59:08.570Z,11.77
2022-11-20T06:59:40.163Z,11.95
2022-11-20T07:00:12.554Z,11.95
2022-11-20T07:00:44.556Z,12.45
2022-11-20T07:01:16.700Z,12.00
2022-11-20T07:01:48.387Z,12.32
2022-11-20T07:02:19.934Z,12.05
2022-11-20T07:02:51.516Z,11.68
2022-11-20T07:03:23.094Z,12.52
2022-11-20T07:03:54.742Z,12.38
2022-11-20T07:04:26.339Z,12.02
2022-11-20T07:04:57.878Z,11.77
2022-11-20T07:05:29.510Z,12.55
2022-11-20T07:06:02.223Z,11.98
2022-11-20T07:06:33.811Z,12.65
2022-11-20T07:07:07.062Z,12.85
2022-11-20T07:07:38.746Z,13.68
2022-11-20T07:08:10.437Z,14.10
2022-11-20T07:08:42.022Z,13.73
2022-11-20T07:09:13.625Z,12.65